createdAt,value
2023-02-01T00:00:53.229Z,11.37
2023-02-01T00:03:55.300Z,8.90
2023-02-01T00:06:57.687Z,13.80
2023-02-01T00:09:59.813Z,11.70
2023-02-01T00:13:01.856Z,8.93
2023-02-01T00:16:13.385Z,9.47
2023-02-01T00:19:16.569Z,9.30
2023-02-01T00:22:18.650Z,16.20
2023-02-01T00:25:20.807Z,10.43
2023-02-01T00:28:22.889Z,23.13
2023-02-01T00:31:26.056Z,14.80
2023-02-01T00:34:29.132Z,9.98
2023-02-01T00:37:31.423Z,11.50
2023-02-01T00:40:33.513Z,9.70
2023-02-01T00:43:36.074Z,12.70
2023-02-01T00:46:38.739Z,21.33
2023-02-01T00:49:40.849Z,15.30
2023-02-01T00:52:42.888Z,13.90
2023-02-01T00:55:50.223Z,13.90
2023-02-01T00:58:52.421Z,13.73
2023-02-01T01:01:54.498Z,13.40
2023-02-01T01:04:56.554Z,11.80
2023-02-01T01:07:58.611Z,14.63
2023-02-01T01:11:15.435Z,13.23
2023-02-01T01:14:17.432Z,20.30
2023-02-01T01:17:19.590Z,14.13
2023-02-01T01:20:23.146Z,11.20
2023-02-01T01:23:26.050Z,13.97
2023-02-01T01:26:32.427Z,15.03
2023-02-01T01:29:34.659Z,14.43
2023-02-01T01:32:36.758Z,15.80
2023-02-01T01:35:39.059Z,17.10
2023-02-01T01:38:42.471Z,16.87
2023-02-01T01:41:46.911Z,12.93
2023-02-01T01:45:19.295Z,12.73
2023-02-01T01:48:31.402Z,18.33
2023-02-01T01:51:37.871Z,16.50
2023-02-01T01:54:44.276Z,18.50
2023-02-01T01:57:51.882Z,17.43
2023-02-01T02:00:56.048Z,14.53
2023-02-01T02:03:59.475Z,18.53
2023-02-01T02:07:12.927Z,13.30
2023-02-01T02:10:16.623Z,16.47
2023-02-01T02:13:24.545Z,16.83
2023-02-01T02:16:35.405Z,15.27
2023-02-01T02:20:11.821Z,17.70
2023-02-01T02:23:33.595Z,16.95
2023-02-01T02:27:25.755Z,17.07
2023-02-01T02:30:37.121Z,20.37
2023-02-01T02:33:57.313Z,16.93
2023-02-01T02:37:08.139Z,19.73
2023-02-01T02:40:37.874Z,18.00
2023-02-01T02:44:10.007Z,19.67
2023-02-01T02:47:30.859Z,19.13
2023-02-01T02:51:00.995Z,19.63
2023-02-01T02:54:34.781Z,16.00
2023-02-01T02:58:01.727Z,24.30
2023-02-01T03:01:23.889Z,23.57
2023-02-01T03:04:26.704Z,18.77
2023-02-01T03:07:44.024Z,18.43
2023-02-01T03:11:05.651Z,17.57
2023-02-01T03:14:08.139Z,22.07
2023-02-01T03:17:15.624Z,24.70
2023-02-01T03:20:21.421Z,19.77
2023-02-01T03:23:29.740Z,20.33
2023-02-01T03:26:35.502Z,17.47
2023-02-01T03:29:52.280Z,19.70
2023-02-01T03:33:00.279Z,22.42
2023-02-01T03:36:16.877Z,18.37
2023-02-01T03:40:10.697Z,16.63
2023-02-01T03:43:18.837Z,21.63
2023-02-01T03:46:47.248Z,24.27
2023-02-01T03:49:58.737Z,15.43
2023-02-01T03:53:08.218Z,18.57
2023-02-01T03:56:12.753Z,20.27
2023-02-01T03:59:15.869Z,24.20
2023-02-01T04:02:17.983Z,16.47
2023-02-01T04:05:20.871Z,25.57
2023-02-01T04:08:25.138Z,18.07
2023-02-01T04:11:28.638Z,19.83
2023-02-01T04:14:30.662Z,19.33
2023-02-01T04:17:32.829Z,26.60
2023-02-01T04:20:34.902Z,19.50
2023-02-01T04:23:37.920Z,20.43
2023-02-01T04:26:40.167Z,26.30
2023-02-01T04:29:44.230Z,23.17
2023-02-01T04:32:46.767Z,23.40
2023-02-01T04:35:49.244Z,21.33
2023-02-01T04:38:52.484Z,21.10
2023-02-01T04:41:54.667Z,21.77
2023-02-01T04:44:56.716Z,21.67
2023-02-01T04:47:58.819Z,18.87
2023-02-01T04:51:03.627Z,26.83
2023-02-01T04:54:06.014Z,22.40
2023-02-01T04:57:08.103Z,21.47
2023-02-01T05:00:11.079Z,19.20
2023-02-01T05:03:13.063Z,23.90
2023-02-01T05:06:15.152Z,30.40
2023-02-01T05:09:17.260Z,23.33
2023-02-01T05:12:37.705Z,27.47
2023-02-01T05:15:49.401Z,25.20
2023-02-01T05:18:56.981Z,22.80
2023-02-01T05:22:00.220Z,23.07
2023-02-01T05:25:02.291Z,21.37
2023-02-01T05:28:13.205Z,26.13
2023-02-01T05:31:15.446Z,30.57
2023-02-01T05:34:17.685Z,22.37
2023-02-01T05:37:19.744Z,24.77
2023-02-01T05:40:23.163Z,23.10
2023-02-01T05:43:25.488Z,25.27
2023-02-01T05:46:27.564Z,25.53
2023-02-01T05:49:29.650Z,27.27
2023-02-01T05:52:31.807Z,32.37
2023-02-01T05:55:34.037Z,27.40
2023-02-01T05:58:37.002Z,24.43
2023-02-01T06:01:39.300Z,22.77
2023-02-01T06:04:43.109Z,22.83
2023-02-01T06:07:45.193Z,24.60
2023-02-01T06:10:47.234Z,24.00
2023-02-01T06:13:49.305Z,31.20
2023-02-01T06:16:51.351Z,24.53
2023-02-01T06:19:56.779Z,24.57
2023-02-01T06:22:58.839Z,31.63
2023-02-01T06:26:03.892Z,25.13
2023-02-01T06:32:08.593Z,25.17
2023-02-01T06:35:17.179Z,28.70
2023-02-01T06:38:20.449Z,25.57
2023-02-01T06:41:24.195Z,20.73
2023-02-01T06:44:26.218Z,24.43
2023-02-01T06:47:28.235Z,34.57
2023-02-01T06:50:30.399Z,31.27
2023-02-01T06:53:32.550Z,39.23
2023-02-01T06:56:41.122Z,34.30
2023-02-01T06:59:43.314Z,33.50
2023-02-01T07:02:46.365Z,36.67
2023-02-01T07:05:51.457Z,27.50
2023-02-01T07:08:56.753Z,29.00
2023-02-01T07:11:58.753Z,33.67
2023-02-01T07:15:02.806Z,36.03
2023-02-01T07:18:04.983Z,31.43
2023-02-01T07:21:07.716Z,32.03
2023-02-01T07:24:09.822Z,28.63
2023-02-01T07:27:12.064Z,35.17
2023-02-01T07:30:14.297Z,31.17
2023-02-01T07:33:16.335Z,32.30
2023-02-01T07:36:19.403Z,32.73
2023-02-01T07:39:21.465Z,38.40
2023-02-01T07:42:23.459Z,37.83
2023-02-01T07:45:25.550Z,32.10
2023-02-01T07:48:28.211Z,30.40
2023-02-01T07:51:30.338Z,39.97
2023-02-01T07:54:32.310Z,32.33
2023-02-01T07:57:34.429Z,34.33
2023-02-01T08:00:58.795Z,33.00
2023-02-01T08:04:03.232Z,32.97
2023-02-01T08:07:05.481Z,34.88
2023-02-01T08:10:11.845Z,35.63
2023-02-01T08:13:14.006Z,38.03
2023-02-01T08:16:18.297Z,55.03
2023-02-01T08:19:20.417Z,56.17
2023-02-01T08:22:22.483Z,34.33
2023-02-01T08:25:25.391Z,27.83
2023-02-01T08:28:27.456Z,33.97
2023-02-01T08:31:30.884Z,35.63
2023-02-01T08:34:35.628Z,31.93
2023-02-01T08:37:37.976Z,30.77
2023-02-01T08:40:40.117Z,35.03
2023-02-01T08:43:43.304Z,41.97
2023-02-01T08:46:45.299Z,30.53
2023-02-01T08:49:47.524Z,26.70
2023-02-01T08:52:49.745Z,25.83
2023-02-01T08:55:51.797Z,28.40
2023-02-01T08:58:53.878Z,29.00
2023-02-01T09:01:57.217Z,23.77
2023-02-01T09:05:01.970Z,30.42
2023-02-01T09:08:04.261Z,33.38
2023-02-01T09:11:11.397Z,46.45
2023-02-01T09:14:13.414Z,31.90
2023-02-01T09:17:15.579Z,35.95
2023-02-01T09:20:20.042Z,33.72
2023-02-01T09:23:22.229Z,29.60
2023-02-01T09:26:31.370Z,29.23
2023-02-01T09:29:34.209Z,23.50
2023-02-01T09:32:37.407Z,32.42
2023-02-01T09:35:39.422Z,31.70
2023-02-01T09:38:44.578Z,42.17
2023-02-01T09:42:05.870Z,26.00
2023-02-01T09:45:32.394Z,33.80
2023-02-01T09:48:40.568Z,26.75
2023-02-01T09:51:49.537Z,37.03
2023-02-01T09:55:01.950Z,29.40
2023-02-01T09:58:31.912Z,26.33
2023-02-01T10:01:33.993Z,33.17
2023-02-01T10:04:36.045Z,32.13
2023-02-01T10:08:08.078Z,31.65
2023-02-01T10:11:49.472Z,32.17
2023-02-01T10:15:22.675Z,35.75
2023-02-01T10:18:45.800Z,26.48
2023-02-01T10:21:56.610Z,24.83
2023-02-01T10:25:23.578Z,22.23
2023-02-01T10:28:27.116Z,25.98
2023-02-01T10:31:37.662Z,27.92
2023-02-01T10:34:40.962Z,24.38
2023-02-01T10:37:46.167Z,33.10
2023-02-01T10:40:48.389Z,25.17
2023-02-01T10:43:55.710Z,26.42
2023-02-01T10:46:57.819Z,25.60
2023-02-01T10:50:24.434Z,32.08
2023-02-01T10:54:01.826Z,26.40
2023-02-01T10:57:03.951Z,33.20
2023-02-01T11:00:21.382Z,23.10
2023-02-01T11:03:41.500Z,30.60
2023-02-01T11:07:08.661Z,27.30
2023-02-01T11:10:39.610Z,26.90
2023-02-01T11:13:42.908Z,27.85
2023-02-01T11:16:51.944Z,24.37
2023-02-01T11:20:02.349Z,25.50
2023-02-01T11:23:05.804Z,24.60
2023-02-01T11:26:20.830Z,23.90
2023-02-01T11:29:29.712Z,26.85
2023-02-01T11:32:32.259Z,24.60
2023-02-01T11:35:40.274Z,27.33
2023-02-01T11:38:52.208Z,24.63
2023-02-01T11:42:18.314Z,20.05
2023-02-01T11:45:27.353Z,24.80
2023-02-01T11:48:33.985Z,29.80
2023-02-01T11:51:53.109Z,23.58
2023-02-01T11:55:21.582Z,27.75
2023-02-01T11:58:44.764Z,31.85
2023-02-01T12:01:52.994Z,27.00
2023-02-01T12:05:28.819Z,27.17
2023-02-01T12:08:52.006Z,28.35
2023-02-01T12:12:15.301Z,33.03
2023-02-01T12:15:37.249Z,25.92
2023-02-01T12:19:00.885Z,36.80
2023-02-01T12:22:05.712Z,35.75
2023-02-01T12:25:36.326Z,32.97
2023-02-01T12:28:51.488Z,33.23
2023-02-01T12:31:56.518Z,35.20
2023-02-01T12:35:10.705Z,30.10
2023-02-01T12:38:39.467Z,30.00
2023-02-01T12:41:53.196Z,33.53
2023-02-01T12:45:03.677Z,30.20
2023-02-01T12:48:24.196Z,29.53
2023-02-01T12:51:36.362Z,29.87
2023-02-01T12:54:47.861Z,31.80
2023-02-01T12:57:56.551Z,27.03
2023-02-01T13:01:29.904Z,28.60
2023-02-01T13:04:46.061Z,31.73
2023-02-01T13:08:08.996Z,30.80
2023-02-01T13:11:20.468Z,28.53
2023-02-01T13:14:51.508Z,27.87
2023-02-01T13:17:55.960Z,29.00
2023-02-01T13:21:08.418Z,22.60
2023-02-01T13:25:08.794Z,29.40
2023-02-01T13:28:42.139Z,24.60
2023-02-01T13:32:00.585Z,20.23
2023-02-01T13:35:21.648Z,22.93
2023-02-01T13:38:30.095Z,23.13
2023-02-01T13:41:41.091Z,29.50
2023-02-01T13:45:05.495Z,24.33
2023-02-01T13:48:15.645Z,26.73
2023-02-01T13:51:35.247Z,23.23
2023-02-01T13:54:41.606Z,24.77
2023-02-01T13:57:46.084Z,21.20
2023-02-01T14:00:49.848Z,21.13
2023-02-01T14:04:01.058Z,18.63
2023-02-01T14:07:04.021Z,18.50
2023-02-01T14:10:43.570Z,15.53
2023-02-01T14:13:46.812Z,17.43
2023-02-01T14:16:55.050Z,28.67
2023-02-01T14:20:40.187Z,20.20
2023-02-01T14:23:44.952Z,18.83
2023-02-01T14:29:59.247Z,17.60
2023-02-01T14:33:18.961Z,17.87
2023-02-01T14:36:22.000Z,18.83
2023-02-01T14:39:39.038Z,18.73
2023-02-01T14:42:44.228Z,22.20
2023-02-01T14:45:51.845Z,20.77
2023-02-01T14:48:54.875Z,20.90
2023-02-01T14:51:58.114Z,26.37
2023-02-01T14:55:06.766Z,19.37
2023-02-01T14:58:36.939Z,17.50
2023-02-01T15:01:47.382Z,22.20
2023-02-01T15:04:57.779Z,16.33
2023-02-01T15:08:06.886Z,25.53
2023-02-01T15:11:16.163Z,16.50
2023-02-01T15:14:18.133Z,17.70
2023-02-01T15:17:24.568Z,24.70
2023-02-01T15:20:29.409Z,19.90
2023-02-01T15:23:33.753Z,21.53
2023-02-01T15:26:35.942Z,20.87
2023-02-01T15:29:38.165Z,15.17
2023-02-01T15:32:41.167Z,17.43
2023-02-01T15:35:47.803Z,18.60
2023-02-01T15:38:49.931Z,28.23
2023-02-01T15:41:55.696Z,22.87
2023-02-01T15:44:57.920Z,18.27
2023-02-01T15:48:00.775Z,15.07
2023-02-01T15:51:05.100Z,15.50
2023-02-01T15:54:14.123Z,13.75
2023-02-01T15:57:40.537Z,13.70
2023-02-01T16:01:05.652Z,16.20
2023-02-01T16:04:31.102Z,8.68
2023-02-01T16:10:44.490Z,12.93
2023-02-01T16:13:46.561Z,11.23
2023-02-01T16:16:49.181Z,9.93
2023-02-01T16:19:51.621Z,9.40
2023-02-01T16:22:53.649Z,11.83
2023-02-01T16:25:55.789Z,12.80
2023-02-01T16:28:58.032Z,7.53
2023-02-01T16:32:00.334Z,14.33
2023-02-01T16:35:02.543Z,13.80
2023-02-01T16:38:14.033Z,14.20
2023-02-01T16:41:23.971Z,13.47
2023-02-01T16:44:26.452Z,12.43
2023-02-01T16:47:28.485Z,13.97
2023-02-01T16:50:33.200Z,17.43
2023-02-01T16:53:48.263Z,10.38
2023-02-01T16:56:55.623Z,15.13
2023-02-01T16:59:57.976Z,23.43
2023-02-01T17:03:00.090Z,18.67
2023-02-01T17:06:02.795Z,16.23
2023-02-01T17:09:05.868Z,14.93
2023-02-01T17:12:23.247Z,14.57
2023-02-01T17:15:28.840Z,22.13
2023-02-01T17:18:35.368Z,14.93
2023-02-01T17:21:45.234Z,14.43
2023-02-01T17:24:49.092Z,18.63
2023-02-01T17:27:51.625Z,22.90
2023-02-01T17:30:53.718Z,17.53
2023-02-01T17:33:57.117Z,13.77
2023-02-01T17:36:59.147Z,14.03
2023-02-01T17:40:01.996Z,14.50
2023-02-01T17:43:04.119Z,16.27
2023-02-01T17:46:18.812Z,17.67
2023-02-01T17:49:20.928Z,15.60
2023-02-01T17:52:25.224Z,10.33
2023-02-01T17:55:27.979Z,12.07
2023-02-01T17:58:33.695Z,19.87
2023-02-01T18:01:35.880Z,19.43
2023-02-01T18:04:37.920Z,15.97
2023-02-01T18:07:39.965Z,13.90
2023-02-01T18:10:45.309Z,13.55
2023-02-01T18:13:48.464Z,15.07
2023-02-01T18:16:50.684Z,17.43
2023-02-01T18:19:54.225Z,15.60
2023-02-01T18:22:56.373Z,16.63
2023-02-01T18:25:58.682Z,21.20
2023-02-01T18:29:00.939Z,15.07
2023-02-01T18:32:03.195Z,24.47
2023-02-01T18:35:21.515Z,12.90
2023-02-01T18:38:23.938Z,12.50
2023-02-01T18:41:26.347Z,15.20
2023-02-01T18:44:28.391Z,17.53
2023-02-01T18:47:30.507Z,31.23
2023-02-01T18:50:37.345Z,16.23
2023-02-01T18:53:40.297Z,19.10
2023-02-01T18:56:43.491Z,20.73
2023-02-01T18:59:45.683Z,24.50
2023-02-01T19:02:49.632Z,25.50
2023-02-01T19:05:52.293Z,21.57
2023-02-01T19:08:56.263Z,24.57
2023-02-01T19:11:58.310Z,20.50
2023-02-01T19:15:00.872Z,20.27
2023-02-01T19:18:02.906Z,23.97
2023-02-01T19:21:06.800Z,29.20
2023-02-01T19:24:08.851Z,31.03
2023-02-01T19:27:10.966Z,35.93
2023-02-01T19:30:14.205Z,26.67
2023-02-01T19:33:17.228Z,27.50
2023-02-01T19:36:19.586Z,30.77
2023-02-01T19:39:22.469Z,33.37
2023-02-01T19:42:28.164Z,47.20
2023-02-01T19:45:30.220Z,31.03
2023-02-01T19:48:34.351Z,36.73
2023-02-01T19:51:41.920Z,29.08
2023-02-01T19:54:45.003Z,37.93
2023-02-01T19:57:47.374Z,37.17
2023-02-01T20:00:55.233Z,29.83
2023-02-01T20:04:02.120Z,32.90
2023-02-01T20:07:04.282Z,33.80
2023-02-01T20:10:07.342Z,29.10
2023-02-01T20:13:09.517Z,39.43
2023-02-01T20:16:11.673Z,33.30
2023-02-01T20:19:14.064Z,33.60
2023-02-01T20:22:16.302Z,35.63
2023-02-01T20:25:18.381Z,36.90
2023-02-01T20:28:22.030Z,37.13
2023-02-01T20:31:30.053Z,43.70
2023-02-01T20:34:32.253Z,42.47
2023-02-01T20:37:37.857Z,34.40
2023-02-01T20:40:39.964Z,45.25
2023-02-01T20:43:43.574Z,38.77
2023-02-01T20:46:47.661Z,42.90
2023-02-01T20:49:49.967Z,35.43
2023-02-01T20:52:52.040Z,43.43
2023-02-01T20:55:55.974Z,50.13
2023-02-01T20:59:03.451Z,45.07
2023-02-01T21:02:05.861Z,37.57
2023-02-01T21:05:08.771Z,55.70
2023-02-01T21:08:12.906Z,45.00
2023-02-01T21:11:16.042Z,45.93
2023-02-01T21:14:18.892Z,48.67
2023-02-01T21:17:21.575Z,58.20
2023-02-01T21:20:23.641Z,53.97
2023-02-01T21:23:25.701Z,47.57
2023-02-01T21:26:28.778Z,45.57
2023-02-01T21:29:30.836Z,45.23
2023-02-01T21:32:34.217Z,44.83
2023-02-01T21:35:39.793Z,40.47
2023-02-01T21:38:41.932Z,48.90
2023-02-01T21:42:02.991Z,47.70
2023-02-01T21:45:05.381Z,43.23
2023-02-01T21:48:07.413Z,46.00
2023-02-01T21:51:10.032Z,47.93
2023-02-01T21:54:12.631Z,55.57
2023-02-01T21:57:14.738Z,52.37
2023-02-01T22:00:18.377Z,51.03
2023-02-01T22:03:20.429Z,55.27
2023-02-01T22:06:30.384Z,67.27
2023-02-01T22:09:32.451Z,45.00
2023-02-01T22:12:34.805Z,55.30
2023-02-01T22:15:39.141Z,52.23
2023-02-01T22:18:41.279Z,41.40
2023-02-01T22:21:45.832Z,62.93
2023-02-01T22:24:48.061Z,65.88
2023-02-01T22:28:32.045Z,58.00
2023-02-01T22:31:13.426Z,65.13
2023-02-01T22:34:16.991Z,56.93
2023-02-01T22:37:19.087Z,60.57
2023-02-01T22:40:21.953Z,55.50
2023-02-01T22:43:24.154Z,45.63
2023-02-01T22:46:28.196Z,48.23
2023-02-01T22:49:30.340Z,46.75
2023-02-01T22:52:32.409Z,57.10
2023-02-01T22:55:36.395Z,49.97
2023-02-01T22:58:39.318Z,55.27
2023-02-01T23:01:42.242Z,56.23
2023-02-01T23:04:44.473Z,49.00
2023-02-01T23:07:49.110Z,53.73
2023-02-01T23:10:51.131Z,49.15
2023-02-01T23:13:53.510Z,47.87
2023-02-01T23:16:55.705Z,50.80
2023-02-01T23:19:58.573Z,55.63
2023-02-01T23:23:01.979Z,49.30
2023-02-01T23:26:04.479Z,52.93
2023-02-01T23:29:06.587Z,55.97
2023-02-01T23:32:08.977Z,47.23
2023-02-01T23:35:12.543Z,48.23
2023-02-01T23:38:15.655Z,51.33
2023-02-01T23:41:19.907Z,50.83
2023-02-01T23:47:24.709Z,50.17
2023-02-01T23:50:26.768Z,48.23
2023-02-01T23:53:28.800Z,57.53
2023-02-01T23:56:43.219Z,48.90
